Time;durP1;ratioP1;P1;durP2;ratioP2;P2;SDS_P1;SDS_P2;PMS_P1;PMS_P2;Temp;Humidity;BMP_temperature;BMP_pressure;BME280_temperature;BME280_humidity;BME280_pressure;Samples;Min_cycle;Max_cycle;Signal;HPM_P1;HPM_P2
2022/05/10 00:04:31;;;;;;;7.35;2.38;;;;;;;15.71;45.93;98501.91;10061145;29;20053;-74
2022/05/10 00:09:51;;;;;;;11.18;3.10;;;;;;;15.62;46.13;98494.34;10034514;29;20057;-74
2022/05/10 00:15:12;;;;;;;6.35;2.80;;;;;;;15.59;46.26;98489.91;10034335;29;20098;-74
2022/05/10 00:20:33;;;;;;;5.07;2.58;;;;;;;15.51;46.23;98489.44;10034181;29;20069;-74
2022/05/10 00:25:53;;;;;;;4.05;2.40;;;;;;;15.41;46.90;98486.75;10034011;29;20050;-74
2022/05/10 00:31:14;;;;;;;7.10;2.42;;;;;;;15.36;47.03;98484.31;10033856;29;20068;-74
2022/05/10 00:36:35;;;;;;;7.03;3.03;;;;;;;15.25;48.32;98479.38;10033662;29;20042;-74
2022/05/10 00:42:15;;;;;;;6.00;3.30;;;;;;;15.12;48.10;98475.13;10045995;29;20097;-74
2022/05/10 00:47:41;;;;;;;9.98;3.00;;;;;;;15.04;48.03;98478.16;10044677;29;20053;-74
2022/05/10 00:53:11;;;;;;;5.95;2.75;;;;;;;15.03;48.38;98470.34;10029949;29;20105;-74
2022/05/10 00:58:57;;;;;;;9.98;3.05;;;;;;;14.95;49.25;98462.13;10022638;29;20081;-74
2022/05/10 01:04:25;;;;;;;7.43;3.72;;;;;;;14.91;48.94;98461.16;10042974;29;20050;-74
2022/05/10 01:10:11;;;;;;;6.50;3.00;;;;;;;14.80;49.07;98459.78;10027539;29;20472;-74
2022/05/10 01:15:32;;;;;;;7.72;3.10;;;;;;;14.71;49.71;98452.19;10031983;29;20053;-74
2022/05/10 01:20:56;;;;;;;5.97;3.17;;;;;;;14.59;50.68;98449.38;10041076;29;20495;-74
2022/05/10 01:26:22;;;;;;;;;;;;;;;14.44;50.88;98450.50;10032679;29;20393;-74
2022/05/10 01:31:47;;;;;;;5.55;2.95;;;;;;;14.42;51.00;98444.03;10044555;29;20371;-74
2022/05/10 01:37:13;;;;;;;8.00;3.42;;;;;;;14.28;50.85;98449.47;10019235;29;20045;-74
2022/05/10 01:42:47;;;;;;;14.55;3.45;;;;;;;14.23;51.14;98439.31;10032024;29;20049;-74
2022/05/10 01:48:09;;;;;;;4.72;3.17;;;;;;;14.23;51.20;98439.31;10032735;29;20055;-74
2022/05/10 01:53:35;;;;;;;6.93;3.00;;;;;;;14.10;52.11;98431.47;10019085;29;20412;-74
2022/05/10 01:58:56;;;;;;;7.28;3.53;;;;;;;14.01;51.72;98427.41;10039351;29;20442;-74
2022/05/10 02:04:20;;;;;;;6.63;4.05;;;;;;;13.98;51.93;98425.78;10051745;29;20052;-74
2022/05/10 02:09:59;;;;;;;8.77;4.50;;;;;;;13.98;52.21;98420.91;10039007;29;20453;-74
2022/05/10 02:15:49;;;;;;;9.80;4.50;;;;;;;14.00;52.29;98420.31;10040830;29;20065;-74
2022/05/10 02:21:18;;;;;;;8.55;4.75;;;;;;;14.04;52.30;98418.50;10054749;29;20408;-74
2022/05/10 02:26:43;;;;;;;7.95;3.85;;;;;;;13.97;52.20;98421.50;10038841;29;20053;-74
2022/05/10 02:37:48;;;;;;;7.95;4.35;;;;;;;13.74;52.95;98419.31;10042867;29;20102;-74
2022/05/10 02:43:36;;;;;;;8.40;4.35;;;;;;;13.65;54.52;98423.66;10064423;29;20053;-74
2022/05/10 02:48:58;;;;;;;8.70;4.15;;;;;;;13.50;54.83;98423.31;10036722;29;20041;-74
2022/05/10 02:54:19;;;;;;;8.40;3.65;;;;;;;13.41;53.97;98422.78;10050102;29;20052;-73
2022/05/10 02:59:40;;;;;;;6.63;4.10;;;;;;;13.35;54.51;98413.97;10049878;29;20397;-74
2022/05/10 03:05:12;;;;;;;7.55;4.20;;;;;;;13.42;54.73;98412.31;10023952;29;20041;-74
2022/05/10 03:10:39;;;;;;;7.00;3.80;;;;;;;13.51;54.90;98407.94;10037876;29;20077;-75
2022/05/10 03:16:01;;;;;;;7.85;4.20;;;;;;;13.57;54.98;98409.09;10061969;29;20062;-74
2022/05/10 03:21:22;;;;;;;10.50;4.13;;;;;;;13.54;54.68;98415.19;10035681;29;20050;-73
2022/05/10 03:26:45;;;;;;;6.65;3.83;;;;;;;13.48;54.83;98415.50;10036277;29;20053;-74
2022/05/10 03:32:39;;;;;;;6.80;3.80;;;;;;;13.42;55.95;98415.09;10038602;29;20046;-77
2022/05/10 03:38:01;;;;;;;9.55;3.80;;;;;;;13.43;55.45;98425.72;10050693;29;20084;-75
2022/05/10 03:43:21;;;;;;;5.93;4.00;;;;;;;13.44;55.75;98435.59;10051146;29;20045;-76
2022/05/10 03:48:42;;;;;;;7.93;4.20;;;;;;;13.48;55.69;98431.59;10051555;29;20057;-77
2022/05/10 03:54:05;;;;;;;7.00;4.13;;;;;;;13.56;55.70;98432.88;10050217;29;20460;-76
2022/05/10 03:59:28;;;;;;;8.30;4.00;;;;;;;13.62;55.60;98440.97;10036916;29;20052;-76
2022/05/10 04:04:49;;;;;;;8.45;4.63;;;;;;;13.67;55.41;98423.06;10047992;29;20408;-75
2022/05/10 04:10:11;;;;;;;8.65;4.28;;;;;;;13.74;55.46;98424.94;10034931;29;20408;-76
2022/05/10 04:15:32;;;;;;;12.77;4.05;;;;;;;13.79;55.62;98426.66;10022050;29;20121;-75
2022/05/10 04:20:53;;;;;;;8.35;4.13;;;;;;;13.84;55.22;98417.19;10027029;29;20420;-76
2022/05/10 04:26:14;;;;;;;13.15;4.53;;;;;;;13.94;55.41;98426.25;10064277;29;20489;-75
2022/05/10 04:31:35;;;;;;;8.88;4.45;;;;;;;14.12;54.98;98428.78;10021649;29;20093;-76
2022/05/10 04:36:56;;;;;;;10.00;3.92;;;;;;;14.21;54.82;98428.69;10021128;29;20524;-75
2022/05/10 04:42:18;;;;;;;10.95;4.53;;;;;;;14.37;54.91;98434.59;10082041;29;20056;-76
2022/05/10 04:47:38;;;;;;;8.55;4.40;;;;;;;14.62;54.40;98433.38;10072041;29;20056;-76
2022/05/10 04:52:59;;;;;;;13.60;4.70;;;;;;;14.89;54.09;98433.66;10084489;29;20051;-75
2022/05/10 04:58:20;;;;;;;9.63;4.63;;;;;;;15.13;53.44;98429.50;10071468;29;20037;-75
2022/05/10 05:03:49;;;;;;;13.02;4.53;;;;;;;15.56;52.68;98432.06;10060675;29;20441;-76
2022/05/10 05:09:10;;;;;;;10.90;4.88;;;;;;;15.88;51.74;98447.31;10072906;29;20048;-75
2022/05/10 05:14:31;;;;;;;10.90;4.82;;;;;;;16.38;50.90;98439.53;10096406;29;20079;-75
2022/05/10 05:19:53;;;;;;;9.40;4.65;;;;;;;16.80;50.28;98439.09;10058217;29;20456;-75
2022/05/10 05:25:14;;;;;;;10.88;4.90;;;;;;;17.39;49.38;98436.56;10057692;29;20053;-74
2022/05/10 05:30:34;;;;;;;11.90;4.82;;;;;;;18.27;48.17;98440.97;10082608;29;20059;-77
2022/05/10 05:35:55;;;;;;;7.13;5.10;;;;;;;19.85;45.99;98444.59;10044617;29;20049;-75
2022/05/10 05:41:15;;;;;;;7.97;4.80;;;;;;;22.96;41.26;98449.44;10069939;29;20049;-74
2022/05/10 05:46:36;;;;;;;10.40;4.53;;;;;;;25.30;35.58;98441.13;10070572;29;20041;-76
2022/05/10 05:51:57;;;;;;;10.02;4.63;;;;;;;27.57;32.61;98442.59;10083732;29;20096;-76
2022/05/10 05:58:08;;;;;;;9.57;4.45;;;;;;;28.90;27.15;98441.63;10071487;29;20048;-76
2022/05/10 06:03:36;;;;;;;10.45;4.40;;;;;;;30.25;25.61;98437.75;10096910;29;20053;-79
2022/05/10 06:08:58;;;;;;;7.03;3.85;;;;;;;31.58;25.18;98441.78;10056582;29;20049;-79
2022/05/10 06:14:18;;;;;;;9.07;4.18;;;;;;;33.09;23.18;98451.44;10056758;29;20061;-76
2022/05/10 06:19:39;;;;;;;6.05;3.95;;;;;;;34.13;21.61;98437.03;10056544;29;20553;-76
2022/05/10 06:25:00;;;;;;;6.88;4.28;;;;;;;34.80;20.56;98440.97;10056214;29;20400;-77
2022/05/10 06:30:22;;;;;;;10.43;4.40;;;;;;;35.78;18.38;98439.72;10069507;29;20049;-76
2022/05/10 06:35:44;;;;;;;8.93;6.10;;;;;;;36.48;16.72;98430.13;10056933;29;20071;-78
2022/05/10 06:41:06;;;;;;;6.82;3.70;;;;;;;37.23;16.75;98439.72;10058793;29;20052;-78
2022/05/10 06:46:30;;;;;;;9.20;4.10;;;;;;;35.09;17.59;98437.56;10063481;29;20056;-77
2022/05/10 06:51:55;;;;;;;11.02;3.90;;;;;;;37.64;16.25;98435.63;10064375;29;20049;-76
2022/05/10 06:57:16;;;;;;;12.77;4.63;;;;;;;36.52;16.31;98427.09;10075441;29;20055;-76
2022/05/10 07:02:38;;;;;;;7.50;4.13;;;;;;;37.66;15.44;98438.47;10062590;29;20551;-78
2022/05/10 07:08:00;;;;;;;11.18;4.80;;;;;;;36.05;17.25;98424.63;10062614;29;20049;-76
2022/05/10 07:13:23;;;;;;;7.55;4.32;;;;;;;37.14;15.63;98423.97;10087422;29;20121;-77
2022/05/10 07:18:44;;;;;;;8.07;3.97;;;;;;;39.41;14.24;98415.06;10074558;29;20459;-77
2022/05/10 07:24:05;;;;;;;8.10;4.10;;;;;;;39.89;14.72;98413.97;10048859;29;20507;-77
2022/05/10 07:29:26;;;;;;;6.70;3.50;;;;;;;44.88;11.45;98410.19;10048969;29;20049;-77
2022/05/10 07:34:47;;;;;;;9.07;3.30;;;;;;;44.92;9.32;98412.88;10061191;29;20053;-77
2022/05/10 07:40:11;;;;;;;6.25;3.58;;;;;;;44.39;10.35;98404.25;10049358;29;20157;-78
2022/05/10 07:45:33;;;;;;;7.25;3.20;;;;;;;47.68;8.66;98401.09;10061062;29;20053;-78
2022/05/10 07:50:53;;;;;;;7.82;3.28;;;;;;;48.87;7.27;98402.47;10060741;29;20061;-78
2022/05/10 07:56:35;;;;;;;6.00;2.83;;;;;;;50.22;6.60;98392.28;10060246;29;20104;-77
2022/05/10 08:01:57;;;;;;;8.55;2.50;;;;;;;50.73;6.51;98390.91;10075782;29;20052;-78
2022/05/10 08:07:18;;;;;;;9.93;3.03;;;;;;;51.26;6.03;98390.00;10084786;29;20484;-78
2022/05/10 08:12:42;;;;;;;12.00;3.00;;;;;;;51.46;5.49;98385.22;10072306;29;20072;-78
2022/05/10 08:18:07;;;;;;;11.90;3.08;;;;;;;51.31;6.14;98387.34;10060187;29;20049;-79
2022/05/10 08:23:29;;;;;;;7.55;2.60;;;;;;;51.15;5.35;98375.31;10046662;29;20052;-79
2022/05/10 08:28:51;;;;;;;6.15;2.45;;;;;;;51.41;5.56;98378.22;10084972;29;20052;-78
2022/05/10 08:34:19;;;;;;;8.75;2.03;;;;;;;52.26;5.85;98369.72;10061388;29;20041;-77
2022/05/10 08:39:46;;;;;;;5.68;1.88;;;;;;;53.31;4.76;98364.19;10061565;29;20113;-78
2022/05/10 08:45:12;;;;;;;7.68;2.33;;;;;;;55.10;4.35;98366.16;10047464;29;20116;-77
2022/05/10 08:50:33;;;;;;;5.28;2.33;;;;;;;56.15;4.08;98357.03;10058684;29;20041;-77
2022/05/10 08:56:01;;;;;;;;;;;;;;;55.37;3.17;98352.09;10060401;29;20122;-77
2022/05/10 09:01:26;;;;;;;2.00;1.05;;;;;;;54.68;3.55;98353.38;10071005;29;19931;-79
2022/05/10 09:07:35;;;;;;;2.90;0.93;;;;;;;54.53;3.73;98351.19;10058435;29;20495;-79
2022/05/10 09:13:06;;;;;;;2.85;1.42;;;;;;;56.80;3.53;98349.03;10076058;29;20397;-79
2022/05/10 09:18:39;;;;;;;3.05;1.80;;;;;;;56.69;3.00;98339.84;10057999;29;20049;-80
2022/05/10 09:24:22;;;;;;;6.03;1.95;;;;;;;56.42;2.77;98333.13;10058196;29;20064;-78
2022/05/10 09:29:48;;;;;;;3.15;1.65;;;;;;;56.45;3.19;98322.28;10080594;29;20053;-78
2022/05/10 09:35:23;;;;;;;3.53;2.15;;;;;;;57.47;2.55;98316.63;10009224;29;20080;-77
2022/05/10 09:40:51;;;;;;;2.85;1.42;;;;;;;55.36;2.34;98321.47;9983270;29;20046;-78
2022/05/10 09:46:22;;;;;;;1.67;0.88;;;;;;;53.15;3.73;98318.75;10006358;29;20061;-78
2022/05/10 09:51:45;;;;;;;2.20;1.10;;;;;;;56.21;2.87;98304.75;10019549;29;20101;-79
2022/05/10 09:57:10;;;;;;;5.22;1.77;;;;;;;56.97;2.13;98299.94;10031721;29;20124;-79
2022/05/10 10:02:33;;;;;;;2.85;1.60;;;;;;;55.30;1.94;98291.50;10019188;29;20045;-80
2022/05/10 10:07:58;;;;;;;2.05;0.80;;;;;;;49.87;3.84;98302.50;10030281;29;20046;-79
2022/05/10 10:13:45;;;;;;;2.00;0.50;;;;;;;42.92;6.57;98296.50;10015396;29;20515;-78
2022/05/10 10:19:27;;;;;;;5.60;0.70;;;;;;;39.93;9.58;98273.53;10047603;29;20489;-78
2022/05/10 10:25:15;;;;;;;1.83;0.40;;;;;;;47.49;7.46;98284.19;10022292;29;20136;-78
2022/05/10 10:30:53;;;;;;;1.27;0.50;;;;;;;46.26;7.26;98273.06;10040929;29;20128;-79
2022/05/10 10:36:27;;;;;;;1.45;0.50;;;;;;;47.48;6.45;98270.94;10050032;29;20401;-78
2022/05/10 10:42:10;;;;;;;1.40;0.30;;;;;;;52.53;4.42;98257.72;10038051;29;20049;-80
2022/05/10 10:47:50;;;;;;;2.65;0.43;;;;;;;54.45;3.09;98263.13;10050478;29;20412;-80
2022/05/10 10:53:13;;;;;;;1.92;0.52;;;;;;;52.80;2.79;98252.91;10063253;29;20576;-80
2022/05/10 10:58:43;;;;;;;2.42;0.50;;;;;;;47.93;3.81;98255.06;10024604;29;20465;-77
2022/05/10 11:04:44;;;;;;;2.58;0.50;;;;;;;42.59;7.01;98242.53;10037737;29;20049;-79
2022/05/10 11:10:05;;;;;;;3.83;0.70;;;;;;;39.25;8.21;98240.53;10049284;29;20042;-79
2022/05/10 11:15:30;;;;;;;2.97;0.70;;;;;;;37.92;9.58;98224.28;10059782;29;20136;-80
2022/05/10 11:21:07;;;;;;;2.08;0.57;;;;;;;37.26;10.88;98233.75;10017091;29;20053;-79
2022/05/10 11:26:43;;;;;;;2.90;0.50;;;;;;;37.40;10.69;98220.94;10028321;29;20034;-79
2022/05/10 11:32:27;;;;;;;2.55;0.70;;;;;;;36.55;11.19;98219.16;10015443;29;20052;-78
2022/05/10 11:38:03;;;;;;;2.75;0.68;;;;;;;35.67;11.34;98205.56;10039663;29;20137;-78
2022/05/10 11:44:09;;;;;;;3.05;0.85;;;;;;;35.33;12.13;98192.63;10007013;29;20049;-77
2022/05/10 11:49:42;;;;;;;5.88;1.73;;;;;;;34.35;12.77;98188.97;10033899;29;20565;-77
2022/05/10 11:55:24;;;;;;;5.18;0.80;;;;;;;32.66;14.43;98183.13;10047983;29;20045;-77
2022/05/10 12:00:53;;;;;;;3.20;0.85;;;;;;;31.91;15.06;98178.94;10022350;29;20049;-77
2022/05/10 12:06:23;;;;;;;3.08;0.77;;;;;;;31.46;15.97;98162.06;10023601;29;20057;-77
2022/05/10 12:11:54;;;;;;;1.92;0.60;;;;;;;31.10;16.04;98159.47;10047176;29;20049;-79
2022/05/10 12:22:58;;;;;;;2.17;0.93;;;;;;;30.39;17.09;98149.78;10036450;29;20101;-74
2022/05/10 12:28:47;;;;;;;3.20;0.90;;;;;;;30.63;17.19;98131.66;10022032;29;20481;-75
2022/05/10 12:34:13;;;;;;;4.80;0.90;;;;;;;30.69;17.22;98139.56;10033926;29;20050;-74
2022/05/10 12:39:34;;;;;;;4.28;0.85;;;;;;;30.03;17.30;98130.50;10020726;29;20412;-75
2022/05/10 12:45:32;;;;;;;1.73;0.80;;;;;;;29.76;17.83;98126.97;10021763;29;20125;-76
2022/05/10 12:51:03;;;;;;;1.52;0.70;;;;;;;30.45;17.59;98123.84;10046291;29;20057;-77
2022/05/10 12:56:25;;;;;;;2.85;1.40;;;;;;;31.16;17.00;98116.16;10045881;29;20052;-75
2022/05/10 13:01:47;;;;;;;1.80;0.73;;;;;;;31.62;16.52;98104.19;10020290;29;20069;-75
2022/05/10 13:07:11;;;;;;;;;;;;;;;31.44;16.63;98084.19;10033486;29;20473;-76
2022/05/10 13:12:35;;;;;;;1.50;0.70;;;;;;;31.30;16.44;98090.13;10048970;29;19932;-76
2022/05/10 13:17:57;;;;;;;1.98;0.88;;;;;;;30.91;16.39;98078.91;10003766;29;20068;-75
2022/05/10 13:23:19;;;;;;;2.20;0.70;;;;;;;30.82;16.83;98063.13;9994850;29;20062;-75
2022/05/10 13:28:54;;;;;;;1.90;0.75;;;;;;;30.74;16.87;98066.06;9993907;29;20050;-75
2022/05/10 13:34:18;;;;;;;1.83;0.80;;;;;;;30.26;16.82;98062.03;9994583;29;20050;-74
2022/05/10 13:39:39;;;;;;;1.98;0.75;;;;;;;30.33;17.24;98051.94;9994015;29;20061;-74
2022/05/10 13:45:01;;;;;;;2.87;0.87;;;;;;;30.49;17.50;98048.91;9993873;29;20119;-75
2022/05/10 13:50:29;;;;;;;3.63;0.88;;;;;;;30.70;17.29;98043.06;9995667;29;20046;-76
2022/05/10 13:55:54;;;;;;;3.55;1.00;;;;;;;30.75;17.58;98033.63;10063025;29;20049;-75
2022/05/10 14:01:15;;;;;;;4.60;1.05;;;;;;;30.51;17.29;98030.22;10030559;29;20057;-75
2022/05/10 14:06:38;;;;;;;1.67;0.80;;;;;;;29.98;17.86;98031.22;10039013;29;20106;-75
2022/05/10 14:11:59;;;;;;;2.63;0.80;;;;;;;29.46;18.17;98021.34;10074371;29;20049;-75
2022/05/10 14:17:21;;;;;;;3.45;0.75;;;;;;;29.06;18.64;98019.28;10089802;29;20496;-75
2022/05/10 14:22:42;;;;;;;2.07;0.80;;;;;;;28.93;18.86;98015.00;10077050;29;20049;-75
2022/05/10 14:28:18;;;;;;;4.03;0.80;;;;;;;28.94;19.24;98004.94;10063473;29;20048;-75
2022/05/10 14:33:42;;;;;;;4.20;1.10;;;;;;;28.79;19.17;97998.47;10077854;29;20476;-75
2022/05/10 14:39:30;;;;;;;1.70;0.77;;;;;;;28.53;19.59;98004.94;10076360;29;20101;-75
2022/05/10 14:44:51;;;;;;;2.03;0.80;;;;;;;28.12;20.00;97992.66;10089189;29;20072;-75
2022/05/10 14:50:37;;;;;;;2.78;0.82;;;;;;;28.14;20.33;97984.78;10076327;29;20049;-75
2022/05/10 14:56:01;;;;;;;2.15;0.80;;;;;;;28.65;20.19;97967.59;10088568;29;20052;-76
2022/05/10 15:01:35;;;;;;;3.08;0.80;;;;;;;29.00;19.90;97962.56;10087533;29;20056;-75
2022/05/10 15:07:02;;;;;;;4.00;1.25;;;;;;;28.93;19.85;97955.38;10052337;29;20048;-75
2022/05/10 15:23:53;;;;;;;2.33;1.40;;;;;;;27.35;21.11;97944.38;10079372;29;20496;-80
2022/05/10 15:29:37;;;;;;;2.45;0.80;;;;;;;27.01;21.29;97930.56;10073581;29;20056;-76
2022/05/10 15:35:02;;;;;;;3.58;1.58;;;;;;;27.28;21.44;97926.44;10075151;29;20124;-77
2022/05/10 15:40:24;;;;;;;3.30;0.90;;;;;;;27.63;21.09;97920.81;10087222;29;20548;-79
2022/05/10 15:45:45;;;;;;;1.80;0.95;;;;;;;27.61;21.20;97923.69;10061064;29;20052;-76
2022/05/10 15:51:06;;;;;;;1.77;0.90;;;;;;;27.73;21.08;97926.63;10060621;29;20129;-78
2022/05/10 15:56:27;;;;;;;3.67;1.20;;;;;;;27.90;21.19;97915.91;10060480;29;20404;-79
2022/05/10 16:01:48;;;;;;;2.38;1.25;;;;;;;27.70;21.14;97916.59;10060388;29;20049;-75
2022/05/10 16:07:11;;;;;;;2.83;0.83;;;;;;;27.38;21.55;97908.56;10099071;29;20072;-76
2022/05/10 16:12:33;;;;;;;3.03;0.98;;;;;;;27.22;21.85;97902.78;10072883;29;20053;-77
2022/05/10 16:17:54;;;;;;;3.47;1.10;;;;;;;26.90;21.91;97898.28;10073031;29;20065;-78
2022/05/10 16:23:20;;;;;;;2.10;0.90;;;;;;;26.87;21.95;97899.00;10073780;29;20049;-76
2022/05/10 16:34:20;;;;;;;3.20;0.90;;;;;;;26.92;21.93;97892.56;10076991;29;20084;-75
2022/05/10 16:39:41;;;;;;;3.10;1.10;;;;;;;27.02;21.81;97886.16;10071867;29;20052;-77
2022/05/10 16:45:02;;;;;;;6.15;0.98;;;;;;;26.98;21.82;97884.00;10059423;29;20483;-77
2022/05/10 16:50:24;;;;;;;2.10;0.90;;;;;;;26.89;21.93;97879.69;10084803;29;20052;-77
2022/05/10 16:55:44;;;;;;;2.58;1.00;;;;;;;26.84;22.14;97883.97;10059224;29;20049;-79
2022/05/10 17:01:05;;;;;;;3.67;1.15;;;;;;;26.80;22.28;97881.06;10059062;29;20527;-76
2022/05/10 17:06:26;;;;;;;3.58;1.00;;;;;;;26.55;22.38;97868.03;10083939;29;20492;-76
2022/05/10 17:11:47;;;;;;;3.58;1.08;;;;;;;26.40;22.68;97875.81;10070803;29;20511;-77
2022/05/10 17:17:12;;;;;;;2.28;1.00;;;;;;;26.18;22.83;97873.47;10059515;29;20061;-76
2022/05/10 17:22:37;;;;;;;3.42;1.17;;;;;;;26.06;22.97;97870.53;10058689;29;20053;-78
2022/05/10 17:33:32;;;;;;;2.40;1.20;;;;;;;25.91;23.41;97858.94;10046495;29;20094;-76
2022/05/10 17:38:53;;;;;;;7.43;1.55;;;;;;;25.93;23.59;97864.69;10019396;29;20421;-77
2022/05/10 17:44:14;;;;;;;2.83;1.50;;;;;;;25.95;23.71;97864.69;10031946;29;20056;-79
2022/05/10 17:49:40;;;;;;;3.70;1.60;;;;;;;25.88;24.04;97863.22;10044433;29;20101;-83
2022/05/10 17:55:03;;;;;;;3.50;1.70;;;;;;;25.77;24.22;97867.41;10032393;29;20128;-78
2022/05/10 18:00:25;;;;;;;5.45;1.70;;;;;;;25.67;24.33;97861.56;10018951;29;20046;-82
2022/05/10 18:05:48;;;;;;;3.88;1.40;;;;;;;25.59;24.72;97865.06;10044378;29;20084;-83
2022/05/10 18:11:11;;;;;;;2.90;1.38;;;;;;;25.41;24.93;97853.44;10031863;29;20098;-79
2022/05/10 18:16:32;;;;;;;;;;;;;;;25.23;26.21;97862.53;10045350;29;20081;-75
2022/05/10 18:21:54;;;;;;;5.10;1.70;;;;;;;25.10;26.04;97855.25;10044385;29;20267;-77
2022/05/10 18:27:14;;;;;;;6.70;1.30;;;;;;;24.92;26.40;97866.41;10019055;29;20484;-76
2022/05/10 18:32:35;;;;;;;4.15;1.40;;;;;;;24.68;26.44;97858.22;10045122;29;20440;-77
2022/05/10 18:37:56;;;;;;;5.90;1.73;;;;;;;24.57;26.80;97865.94;10036033;29;20072;-77
2022/05/10 18:43:17;;;;;;;4.63;2.10;;;;;;;24.43;27.46;97871.44;10026619;29;20455;-75
2022/05/10 18:48:38;;;;;;;5.60;1.90;;;;;;;24.29;27.71;97866.22;10039582;29;20120;-75
2022/05/10 18:54:00;;;;;;;6.60;1.73;;;;;;;24.13;28.10;97866.69;10051010;29;20405;-77
2022/05/10 18:59:20;;;;;;;3.65;1.63;;;;;;;24.06;28.14;97875.84;10037462;29;20049;-75
2022/05/10 19:04:42;;;;;;;6.50;1.75;;;;;;;23.92;28.56;97870.59;10050178;29;20049;-77
2022/05/10 19:10:04;;;;;;;6.70;2.08;;;;;;;23.80;28.87;97884.66;10036851;29;20049;-75
2022/05/10 19:15:27;;;;;;;6.85;2.30;;;;;;;23.70;29.11;97882.34;10024702;29;20053;-75
2022/05/10 19:20:47;;;;;;;16.40;10.45;;;;;;;23.62;29.42;97888.59;10049415;29;20053;-75
2022/05/10 19:26:13;;;;;;;6.10;2.28;;;;;;;23.54;29.79;97882.72;10036590;29;20045;-76
2022/05/10 19:31:34;;;;;;;4.53;2.00;;;;;;;23.40;29.94;97885.31;10023555;29;20057;-75
2022/05/10 19:36:58;;;;;;;6.28;2.40;;;;;;;23.33;30.15;97881.63;10023531;29;20050;-75
2022/05/10 19:42:18;;;;;;;4.28;2.20;;;;;;;23.35;30.32;97895.91;10036011;29;20054;-76
2022/05/10 19:47:41;;;;;;;6.95;3.70;;;;;;;23.37;30.26;97889.53;10046158;29;20407;-75
2022/05/10 19:53:02;;;;;;;5.35;2.13;;;;;;;23.30;30.28;97893.66;10004507;29;20049;-76
2022/05/10 19:58:23;;;;;;;5.85;2.50;;;;;;;23.22;30.48;97888.53;10018563;29;20465;-76
2022/05/10 20:09:24;;;;;;;4.22;1.88;;;;;;;23.09;30.71;97893.25;10012368;29;20133;-76
2022/05/10 20:14:44;;;;;;;3.28;1.95;;;;;;;22.99;30.79;97895.91;10001897;29;20080;-76
2022/05/10 20:20:07;;;;;;;5.25;2.35;;;;;;;22.88;30.85;97891.41;10027186;29;20037;-76
2022/05/10 20:25:29;;;;;;;3.00;1.85;;;;;;;22.83;31.18;97896.25;10010551;29;20041;-76
2022/05/10 20:30:49;;;;;;;8.02;2.30;;;;;;;22.74;31.47;97891.78;10015028;29;20045;-77
2022/05/10 20:36:14;;;;;;;5.22;2.00;;;;;;;22.68;31.73;97882.38;10028411;29;20072;-75
2022/05/10 20:41:34;;;;;;;5.30;2.97;;;;;;;22.69;31.58;97889.53;10021714;29;20476;-76
2022/05/10 20:46:55;;;;;;;3.90;2.13;;;;;;;22.71;31.81;97889.56;10015472;29;20496;-76
2022/05/10 20:52:16;;;;;;;3.78;2.30;;;;;;;22.73;31.87;97884.63;10012924;29;20053;-75
2022/05/10 20:57:37;;;;;;;6.60;2.13;;;;;;;22.70;32.12;97876.75;10012745;29;20508;-75
2022/05/10 21:02:59;;;;;;;4.57;2.40;;;;;;;22.75;31.96;97895.34;10024485;29;20050;-76
2022/05/10 21:08:32;;;;;;;4.53;2.07;;;;;;;22.71;32.12;97889.56;10003580;29;20046;-76
2022/05/10 21:13:53;;;;;;;2.90;1.88;;;;;;;22.72;32.18;97886.03;10020745;29;20489;-75
2022/05/10 21:19:33;;;;;;;4.15;2.05;;;;;;;22.66;32.38;97882.34;9999477;29;20053;-75
2022/05/10 21:25:13;;;;;;;5.88;2.03;;;;;;;22.64;32.65;97891.56;10009758;29;20042;-75
2022/05/10 21:36:26;;;;;;;4.70;2.20;;;;;;;22.52;32.72;97886.31;9997033;29;20481;-75
2022/05/10 21:41:47;;;;;;;3.00;2.22;;;;;;;22.49;32.76;97881.28;9981584;29;20046;-77
2022/05/10 21:47:08;;;;;;;4.03;2.05;;;;;;;22.49;32.93;97882.00;9994626;29;20061;-75
2022/05/10 21:52:30;;;;;;;3.83;2.00;;;;;;;22.39;32.75;97881.00;9993731;29;20053;-75
2022/05/10 21:57:51;;;;;;;5.68;2.50;;;;;;;22.36;33.33;97873.84;9994270;29;20050;-75
2022/05/10 22:03:12;;;;;;;3.33;2.25;;;;;;;22.34;33.19;97876.63;9993983;29;20098;-75
2022/05/10 22:08:34;;;;;;;5.43;2.30;;;;;;;22.23;33.45;97884.94;9981259;29;20050;-75
2022/05/10 22:13:55;;;;;;;7.57;2.35;;;;;;;22.21;33.66;97882.03;9986373;29;20068;-76
2022/05/10 22:19:15;;;;;;;4.28;2.35;;;;;;;22.14;33.47;97874.03;10000793;29;20046;-75
2022/05/10 22:24:36;;;;;;;3.90;2.13;;;;;;;22.08;33.61;97879.56;10013807;29;20058;-76
2022/05/10 22:29:58;;;;;;;3.60;2.17;;;;;;;21.95;33.78;97870.72;10013411;29;20087;-75
2022/05/10 22:35:19;;;;;;;2.92;2.08;;;;;;;21.94;33.89;97874.97;10026165;29;20473;-75
2022/05/10 22:40:39;;;;;;;3.88;1.90;;;;;;;21.87;33.59;97870.53;10000183;29;20081;-75
2022/05/10 22:46:07;;;;;;;6.45;2.10;;;;;;;21.87;33.82;97870.53;10005701;29;20446;-75
2022/05/10 22:51:28;;;;;;;3.50;2.00;;;;;;;21.82;33.88;97866.16;10022853;29;20049;-76
2022/05/10 22:56:48;;;;;;;4.10;2.00;;;;;;;21.75;33.81;97864.53;10043030;29;20081;-77
2022/05/10 23:02:09;;;;;;;4.18;1.85;;;;;;;21.69;33.95;97853.72;10004499;29;20056;-76
2022/05/10 23:07:31;;;;;;;2.50;2.08;;;;;;;21.57;33.92;97849.84;10011451;29;20098;-78
2022/05/10 23:12:51;;;;;;;2.38;1.92;;;;;;;21.45;34.42;97858.06;10025949;29;20090;-76
2022/05/10 23:18:13;;;;;;;4.68;2.20;;;;;;;21.38;34.50;97860.75;10019797;29;20095;-75
2022/05/10 23:23:34;;;;;;;2.67;2.15;;;;;;;21.24;34.46;97857.50;10017414;29;20089;-75
2022/05/10 23:28:55;;;;;;;3.30;1.90;;;;;;;21.16;34.91;97845.91;10011239;29;20046;-75
2022/05/10 23:34:17;;;;;;;5.15;2.00;;;;;;;21.02;34.82;97854.75;9998475;29;20508;-75
2022/05/10 23:39:38;;;;;;;3.25;2.30;;;;;;;20.90;35.36;97840.22;9998405;29;20073;-75
2022/05/10 23:44:59;;;;;;;2.80;2.28;;;;;;;20.86;35.16;97837.28;10024777;29;20074;-75
2022/05/10 23:50:23;;;;;;;2.75;2.00;;;;;;;20.90;35.45;97842.34;10010774;29;20050;-76
2022/05/10 23:55:44;;;;;;;3.58;2.28;;;;;;;20.91;35.42;97838.81;10010932;29;20046;-76
